sensor_id;sensor_type;location;lat;lon;timestamp;temperature;humidity
74171;DHT22;62526;50.948;6.590;2023-08-07T00:01:44;14.20;99.90
74171;DHT22;62526;50.948;6.590;2023-08-07T00:04:11;14.20;99.90
74171;DHT22;62526;50.948;6.590;2023-08-07T00:06:37;14.20;99.90
74171;DHT22;62526;50.948;6.590;2023-08-07T00:09:05;14.20;99.90
74171;DHT22;62526;50.948;6.590;2023-08-07T00:11:31;14.20;99.90
74171;DHT22;62526;50.948;6.590;2023-08-07T00:13:59;14.20;99.90
74171;DHT22;62526;50.948;6.590;2023-08-07T00:16:27;14.20;99.90
74171;DHT22;62526;50.948;6.590;2023-08-07T00:18:54;14.20;99.90
74171;DHT22;62526;50.948;6.590;2023-08-07T00:21:22;14.00;99.90
74171;DHT22;62526;50.948;6.590;2023-08-07T00:23:49;14.10;99.90
74171;DHT22;62526;50.948;6.590;2023-08-07T00:26:16;13.30;99.90
74171;DHT22;62526;50.948;6.590;2023-08-07T00:28:43;14.10;99.90
74171;DHT22;62526;50.948;6.590;2023-08-07T00:31:10;14.10;99.90
74171;DHT22;62526;50.948;6.590;2023-08-07T00:33:38;13.90;99.90
74171;DHT22;62526;50.948;6.590;2023-08-07T00:36:05;13.80;99.90
74171;DHT22;62526;50.948;6.590;2023-08-07T00:38:31;14.00;99.90
74171;DHT22;62526;50.948;6.590;2023-08-07T00:40:59;14.10;99.90
74171;DHT22;62526;50.948;6.590;2023-08-07T00:43:25;14.20;99.90
74171;DHT22;62526;50.948;6.590;2023-08-07T00:45:53;14.30;99.90
74171;DHT22;62526;50.948;6.590;2023-08-07T00:48:20;14.10;99.90
74171;DHT22;62526;50.948;6.590;2023-08-07T00:50:47;14.00;99.90
74171;DHT22;62526;50.948;6.590;2023-08-07T00:53:14;13.90;99.90
74171;DHT22;62526;50.948;6.590;2023-08-07T00:55:41;13.90;99.90
74171;DHT22;62526;50.948;6.590;2023-08-07T00:58:08;14.00;99.90
74171;DHT22;62526;50.948;6.590;2023-08-07T01:00:35;14.20;99.90
74171;DHT22;62526;50.948;6.590;2023-08-07T01:03:01;14.20;99.90
74171;DHT22;62526;50.948;6.590;2023-08-07T01:05:28;14.40;99.90
74171;DHT22;62526;50.948;6.590;2023-08-07T01:10:32;14.50;99.90
74171;DHT22;62526;50.948;6.590;2023-08-07T01:12:55;14.50;99.90
74171;DHT22;62526;50.948;6.590;2023-08-07T01:15:22;14.40;99.90
74171;DHT22;62526;50.948;6.590;2023-08-07T01:17:49;14.50;99.90
74171;DHT22;62526;50.948;6.590;2023-08-07T01:20:15;14.50;99.90
74171;DHT22;62526;50.948;6.590;2023-08-07T01:22:42;14.40;99.90
74171;DHT22;62526;50.948;6.590;2023-08-07T01:25:08;14.20;99.90
74171;DHT22;62526;50.948;6.590;2023-08-07T01:27:36;14.20;99.90
74171;DHT22;62526;50.948;6.590;2023-08-07T01:30:26;14.20;99.90
74171;DHT22;62526;50.948;6.590;2023-08-07T01:32:59;14.30;99.90
74171;DHT22;62526;50.948;6.590;2023-08-07T01:35:23;14.30;99.90
74171;DHT22;62526;50.948;6.590;2023-08-07T01:37:53;14.40;99.90
74171;DHT22;62526;50.948;6.590;2023-08-07T01:40:19;14.40;99.90
74171;DHT22;62526;50.948;6.590;2023-08-07T01:42:45;14.50;99.90
74171;DHT22;62526;50.948;6.590;2023-08-07T01:45:12;14.50;99.90
74171;DHT22;62526;50.948;6.590;2023-08-07T01:47:38;14.60;99.90
74171;DHT22;62526;50.948;6.590;2023-08-07T01:50:06;14.60;99.90
74171;DHT22;62526;50.948;6.590;2023-08-07T01:52:33;14.50;99.90
74171;DHT22;62526;50.948;6.590;2023-08-07T01:55:00;14.40;99.90
74171;DHT22;62526;50.948;6.590;2023-08-07T01:57:26;14.40;99.90
74171;DHT22;62526;50.948;6.590;2023-08-07T01:59:53;14.50;99.90
74171;DHT22;62526;50.948;6.590;2023-08-07T02:02:19;14.50;99.90
74171;DHT22;62526;50.948;6.590;2023-08-07T02:04:46;14.50;99.90
74171;DHT22;62526;50.948;6.590;2023-08-07T02:07:13;14.60;99.90
74171;DHT22;62526;50.948;6.590;2023-08-07T02:09:40;14.80;99.90
74171;DHT22;62526;50.948;6.590;2023-08-07T02:12:07;14.70;99.90
74171;DHT22;62526;50.948;6.590;2023-08-07T02:14:33;14.70;99.90
74171;DHT22;62526;50.948;6.590;2023-08-07T02:17:01;14.80;99.90
74171;DHT22;62526;50.948;6.590;2023-08-07T02:19:28;15.00;99.90
74171;DHT22;62526;50.948;6.590;2023-08-07T02:21:55;15.10;99.90
74171;DHT22;62526;50.948;6.590;2023-08-07T02:24:22;14.80;99.90
74171;DHT22;62526;50.948;6.590;2023-08-07T02:26:49;14.80;99.90
74171;DHT22;62526;50.948;6.590;2023-08-07T02:29:16;15.00;99.90
74171;DHT22;62526;50.948;6.590;2023-08-07T02:31:42;15.00;99.90
74171;DHT22;62526;50.948;6.590;2023-08-07T02:34:10;15.20;99.90
74171;DHT22;62526;50.948;6.590;2023-08-07T02:36:36;15.20;99.90
74171;DHT22;62526;50.948;6.590;2023-08-07T02:39:04;15.10;99.90
74171;DHT22;62526;50.948;6.590;2023-08-07T02:41:31;14.90;99.90
74171;DHT22;62526;50.948;6.590;2023-08-07T02:43:58;15.00;99.90
74171;DHT22;62526;50.948;6.590;2023-08-07T02:46:25;15.00;99.90
74171;DHT22;62526;50.948;6.590;2023-08-07T02:48:52;15.30;99.90
74171;DHT22;62526;50.948;6.590;2023-08-07T02:51:29;15.20;99.90
74171;DHT22;62526;50.948;6.590;2023-08-07T02:53:56;15.20;99.90
74171;DHT22;62526;50.948;6.590;2023-08-07T02:56:22;15.20;99.90
74171;DHT22;62526;50.948;6.590;2023-08-07T02:58:49;15.10;99.90
74171;DHT22;62526;50.948;6.590;2023-08-07T03:01:16;14.90;99.90
74171;DHT22;62526;50.948;6.590;2023-08-07T03:03:44;14.90;99.90
74171;DHT22;62526;50.948;6.590;2023-08-07T03:06:10;14.80;99.90
74171;DHT22;62526;50.948;6.590;2023-08-07T03:08:37;14.90;99.90
74171;DHT22;62526;50.948;6.590;2023-08-07T03:11:03;14.90;99.90
74171;DHT22;62526;50.948;6.590;2023-08-07T03:13:30;14.60;99.90
74171;DHT22;62526;50.948;6.590;2023-08-07T03:15:59;14.60;99.90
74171;DHT22;62526;50.948;6.590;2023-08-07T03:18:25;14.70;99.90
74171;DHT22;62526;50.948;6.590;2023-08-07T03:20:52;14.60;99.90
74171;DHT22;62526;50.948;6.590;2023-08-07T03:23:18;14.80;99.90
74171;DHT22;62526;50.948;6.590;2023-08-07T03:25:47;14.50;99.90
74171;DHT22;62526;50.948;6.590;2023-08-07T03:28:14;14.50;99.90
74171;DHT22;62526;50.948;6.590;2023-08-07T03:30:41;14.50;99.90
74171;DHT22;62526;50.948;6.590;2023-08-07T03:33:08;14.80;99.90
74171;DHT22;62526;50.948;6.590;2023-08-07T03:35:35;14.50;99.90
74171;DHT22;62526;50.948;6.590;2023-08-07T03:38:02;14.40;99.90
74171;DHT22;62526;50.948;6.590;2023-08-07T03:40:29;14.80;99.90
74171;DHT22;62526;50.948;6.590;2023-08-07T03:42:55;14.80;99.90
74171;DHT22;62526;50.948;6.590;2023-08-07T03:45:22;15.00;99.90
74171;DHT22;62526;50.948;6.590;2023-08-07T03:47:49;15.10;99.90
74171;DHT22;62526;50.948;6.590;2023-08-07T03:50:16;15.00;99.90
74171;DHT22;62526;50.948;6.590;2023-08-07T03:52:43;15.10;99.90
74171;DHT22;62526;50.948;6.590;2023-08-07T03:55:09;14.80;99.90
74171;DHT22;62526;50.948;6.590;2023-08-07T03:57:37;14.80;99.90
74171;DHT22;62526;50.948;6.590;2023-08-07T04:00:04;15.00;99.90
74171;DHT22;62526;50.948;6.590;2023-08-07T04:02:31;15.00;99.90
74171;DHT22;62526;50.948;6.590;2023-08-07T04:04:59;14.90;99.90
74171;DHT22;62526;50.948;6.590;2023-08-07T04:07:25;15.00;99.90
74171;DHT22;62526;50.948;6.590;2023-08-07T04:09:52;15.30;99.90
74171;DHT22;62526;50.948;6.590;2023-08-07T04:12:20;15.20;99.90
74171;DHT22;62526;50.948;6.590;2023-08-07T04:14:47;15.10;99.90
74171;DHT22;62526;50.948;6.590;2023-08-07T04:17:14;15.10;99.90
74171;DHT22;62526;50.948;6.590;2023-08-07T04:19:42;15.30;99.90
74171;DHT22;62526;50.948;6.590;2023-08-07T04:22:10;15.00;99.90
74171;DHT22;62526;50.948;6.590;2023-08-07T04:24:37;15.00;99.90
74171;DHT22;62526;50.948;6.590;2023-08-07T04:27:05;15.00;99.90
74171;DHT22;62526;50.948;6.590;2023-08-07T04:29:31;14.90;99.90
74171;DHT22;62526;50.948;6.590;2023-08-07T04:31:59;15.00;99.90
74171;DHT22;62526;50.948;6.590;2023-08-07T04:34:26;14.80;99.90
74171;DHT22;62526;50.948;6.590;2023-08-07T04:36:52;15.00;99.90
74171;DHT22;62526;50.948;6.590;2023-08-07T04:39:20;14.70;99.90
74171;DHT22;62526;50.948;6.590;2023-08-07T04:41:45;14.90;99.90
74171;DHT22;62526;50.948;6.590;2023-08-07T04:44:12;14.80;99.90
74171;DHT22;62526;50.948;6.590;2023-08-07T04:46:40;14.80;99.90
74171;DHT22;62526;50.948;6.590;2023-08-07T04:49:06;14.80;99.90
74171;DHT22;62526;50.948;6.590;2023-08-07T04:51:33;14.80;99.90
74171;DHT22;62526;50.948;6.590;2023-08-07T04:54:00;14.60;99.90
74171;DHT22;62526;50.948;6.590;2023-08-07T04:56:26;14.70;99.90
74171;DHT22;62526;50.948;6.590;2023-08-07T04:58:54;14.80;99.90
74171;DHT22;62526;50.948;6.590;2023-08-07T05:01:20;14.80;99.90
74171;DHT22;62526;50.948;6.590;2023-08-07T05:03:47;14.80;99.90
74171;DHT22;62526;50.948;6.590;2023-08-07T05:06:14;14.80;99.90
74171;DHT22;62526;50.948;6.590;2023-08-07T05:08:41;15.20;99.90
74171;DHT22;62526;50.948;6.590;2023-08-07T05:11:08;15.10;99.90
74171;DHT22;62526;50.948;6.590;2023-08-07T05:13:35;15.20;99.90
74171;DHT22;62526;50.948;6.590;2023-08-07T05:16:02;15.20;99.90
74171;DHT22;62526;50.948;6.590;2023-08-07T05:18:29;15.30;99.90
74171;DHT22;62526;50.948;6.590;2023-08-07T05:20:56;15.20;99.90
74171;DHT22;62526;50.948;6.590;2023-08-07T05:23:25;14.50;99.90
74171;DHT22;62526;50.948;6.590;2023-08-07T05:25:53;14.50;99.90
74171;DHT22;62526;50.948;6.590;2023-08-07T05:28:19;14.90;99.90
74171;DHT22;62526;50.948;6.590;2023-08-07T05:30:47;14.60;99.90
74171;DHT22;62526;50.948;6.590;2023-08-07T05:33:14;14.60;99.90
74171;DHT22;62526;50.948;6.590;2023-08-07T05:35:41;14.80;99.90
74171;DHT22;62526;50.948;6.590;2023-08-07T05:38:07;14.70;99.90
74171;DHT22;62526;50.948;6.590;2023-08-07T05:40:34;14.90;99.90
74171;DHT22;62526;50.948;6.590;2023-08-07T05:43:02;14.90;99.90
74171;DHT22;62526;50.948;6.590;2023-08-07T05:45:30;15.00;99.90
74171;DHT22;62526;50.948;6.590;2023-08-07T05:47:56;15.30;99.90
74171;DHT22;62526;50.948;6.590;2023-08-07T05:50:23;14.90;99.90
74171;DHT22;62526;50.948;6.590;2023-08-07T05:52:50;14.90;99.90
74171;DHT22;62526;50.948;6.590;2023-08-07T05:55:16;14.90;99.90
74171;DHT22;62526;50.948;6.590;2023-08-07T05:57:44;14.60;99.90
74171;DHT22;62526;50.948;6.590;2023-08-07T06:00:10;14.70;99.90
74171;DHT22;62526;50.948;6.590;2023-08-07T06:02:38;14.60;99.90
74171;DHT22;62526;50.948;6.590;2023-08-07T06:05:05;14.40;99.90
74171;DHT22;62526;50.948;6.590;2023-08-07T06:07:32;14.20;99.90
74171;DHT22;62526;50.948;6.590;2023-08-07T06:09:58;14.30;99.90
74171;DHT22;62526;50.948;6.590;2023-08-07T06:12:25;14.20;99.90
74171;DHT22;62526;50.948;6.590;2023-08-07T06:14:52;14.20;99.90
74171;DHT22;62526;50.948;6.590;2023-08-07T06:17:18;14.00;99.90
74171;DHT22;62526;50.948;6.590;2023-08-07T06:19:45;13.90;99.90
74171;DHT22;62526;50.948;6.590;2023-08-07T06:22:12;13.90;99.90
74171;DHT22;62526;50.948;6.590;2023-08-07T06:24:39;13.80;99.90
74171;DHT22;62526;50.948;6.590;2023-08-07T06:27:07;13.90;99.90
74171;DHT22;62526;50.948;6.590;2023-08-07T06:29:34;14.00;99.90
74171;DHT22;62526;50.948;6.590;2023-08-07T06:32:01;14.00;99.90
74171;DHT22;62526;50.948;6.590;2023-08-07T06:34:27;14.20;99.90
74171;DHT22;62526;50.948;6.590;2023-08-07T06:36:56;14.30;99.90
74171;DHT22;62526;50.948;6.590;2023-08-07T06:39:23;14.00;99.90
74171;DHT22;62526;50.948;6.590;2023-08-07T06:41:50;14.00;99.90
74171;DHT22;62526;50.948;6.590;2023-08-07T06:44:16;14.00;99.90
74171;DHT22;62526;50.948;6.590;2023-08-07T06:46:43;13.90;99.90
74171;DHT22;62526;50.948;6.590;2023-08-07T06:49:10;13.90;99.90
74171;DHT22;62526;50.948;6.590;2023-08-07T06:51:37;14.10;99.90
74171;DHT22;62526;50.948;6.590;2023-08-07T06:54:04;14.10;99.90
74171;DHT22;62526;50.948;6.590;2023-08-07T06:56:30;14.20;99.90
74171;DHT22;62526;50.948;6.590;2023-08-07T06:58:57;13.90;99.90
74171;DHT22;62526;50.948;6.590;2023-08-07T07:01:25;14.00;99.90
74171;DHT22;62526;50.948;6.590;2023-08-07T07:03:51;14.00;99.90
74171;DHT22;62526;50.948;6.590;2023-08-07T07:06:19;13.80;99.90
74171;DHT22;62526;50.948;6.590;2023-08-07T07:08:45;13.80;99.90
74171;DHT22;62526;50.948;6.590;2023-08-07T07:11:11;14.30;99.90
74171;DHT22;62526;50.948;6.590;2023-08-07T07:13:38;14.30;99.90
74171;DHT22;62526;50.948;6.590;2023-08-07T07:16:05;14.10;99.90
74171;DHT22;62526;50.948;6.590;2023-08-07T07:18:32;14.00;99.90
74171;DHT22;62526;50.948;6.590;2023-08-07T07:21:00;14.10;99.90
74171;DHT22;62526;50.948;6.590;2023-08-07T07:23:26;14.10;99.90
74171;DHT22;62526;50.948;6.590;2023-08-07T07:25:53;14.40;99.90
74171;DHT22;62526;50.948;6.590;2023-08-07T07:28:23;14.50;99.90
74171;DHT22;62526;50.948;6.590;2023-08-07T07:30:50;14.40;99.90
74171;DHT22;62526;50.948;6.590;2023-08-07T07:33:20;14.60;99.90
74171;DHT22;62526;50.948;6.590;2023-08-07T07:35:46;14.70;99.90
74171;DHT22;62526;50.948;6.590;2023-08-07T07:38:13;14.70;99.90
74171;DHT22;62526;50.948;6.590;2023-08-07T07:40:40;15.00;99.90
74171;DHT22;62526;50.948;6.590;2023-08-07T07:43:07;15.00;99.90
74171;DHT22;62526;50.948;6.590;2023-08-07T07:45:34;15.20;99.90
74171;DHT22;62526;50.948;6.590;2023-08-07T07:48:01;15.10;99.90
74171;DHT22;62526;50.948;6.590;2023-08-07T07:50:27;15.20;99.90
74171;DHT22;62526;50.948;6.590;2023-08-07T07:52:54;14.80;99.90
74171;DHT22;62526;50.948;6.590;2023-08-07T07:55:21;14.80;99.90
74171;DHT22;62526;50.948;6.590;2023-08-07T07:57:48;15.10;99.90
74171;DHT22;62526;50.948;6.590;2023-08-07T08:00:15;15.10;99.90
74171;DHT22;62526;50.948;6.590;2023-08-07T08:02:42;15.00;99.90
74171;DHT22;62526;50.948;6.590;2023-08-07T08:05:10;15.40;99.90
74171;DHT22;62526;50.948;6.590;2023-08-07T08:07:40;15.40;99.90
74171;DHT22;62526;50.948;6.590;2023-08-07T08:10:07;15.60;99.90
74171;DHT22;62526;50.948;6.590;2023-08-07T08:12:35;15.40;99.90
74171;DHT22;62526;50.948;6.590;2023-08-07T08:15:02;15.30;99.90
74171;DHT22;62526;50.948;6.590;2023-08-07T08:17:29;15.30;99.90
74171;DHT22;62526;50.948;6.590;2023-08-07T08:19:59;15.60;99.90
74171;DHT22;62526;50.948;6.590;2023-08-07T08:22:27;15.80;99.90
74171;DHT22;62526;50.948;6.590;2023-08-07T08:24:54;15.80;99.90
74171;DHT22;62526;50.948;6.590;2023-08-07T08:27:22;15.80;99.90
74171;DHT22;62526;50.948;6.590;2023-08-07T08:29:49;15.70;99.90
74171;DHT22;62526;50.948;6.590;2023-08-07T08:32:16;15.70;99.90
74171;DHT22;62526;50.948;6.590;2023-08-07T08:34:42;15.70;99.90
74171;DHT22;62526;50.948;6.590;2023-08-07T08:37:11;15.90;99.90
74171;DHT22;62526;50.948;6.590;2023-08-07T08:39:39;15.90;99.90
74171;DHT22;62526;50.948;6.590;2023-08-07T08:42:06;16.10;99.90
74171;DHT22;62526;50.948;6.590;2023-08-07T08:44:33;14.00;99.90
74171;DHT22;62526;50.948;6.590;2023-08-07T08:47:00;16.40;99.90
74171;DHT22;62526;50.948;6.590;2023-08-07T08:49:30;16.70;99.90
74171;DHT22;62526;50.948;6.590;2023-08-07T08:51:57;16.90;99.90
74171;DHT22;62526;50.948;6.590;2023-08-07T08:54:26;16.90;99.90
74171;DHT22;62526;50.948;6.590;2023-08-07T08:56:52;17.00;99.90
74171;DHT22;62526;50.948;6.590;2023-08-07T08:59:19;17.10;99.90
74171;DHT22;62526;50.948;6.590;2023-08-07T09:01:48;16.90;99.90
74171;DHT22;62526;50.948;6.590;2023-08-07T09:04:16;17.00;99.90
74171;DHT22;62526;50.948;6.590;2023-08-07T09:06:42;17.40;99.90
74171;DHT22;62526;50.948;6.590;2023-08-07T09:09:09;17.40;99.90
74171;DHT22;62526;50.948;6.590;2023-08-07T09:11:36;17.60;99.90
74171;DHT22;62526;50.948;6.590;2023-08-07T09:14:03;17.90;99.90
74171;DHT22;62526;50.948;6.590;2023-08-07T09:16:30;18.00;99.90
74171;DHT22;62526;50.948;6.590;2023-08-07T09:18:58;18.20;99.90
74171;DHT22;62526;50.948;6.590;2023-08-07T09:21:25;18.10;99.90
74171;DHT22;62526;50.948;6.590;2023-08-07T09:23:52;17.60;99.90
74171;DHT22;62526;50.948;6.590;2023-08-07T09:26:22;17.50;99.90
74171;DHT22;62526;50.948;6.590;2023-08-07T09:28:50;17.60;99.90
74171;DHT22;62526;50.948;6.590;2023-08-07T09:31:16;17.70;99.90
74171;DHT22;62526;50.948;6.590;2023-08-07T09:33:46;17.70;99.90
74171;DHT22;62526;50.948;6.590;2023-08-07T09:36:12;17.50;99.90
74171;DHT22;62526;50.948;6.590;2023-08-07T09:38:39;17.50;99.90
74171;DHT22;62526;50.948;6.590;2023-08-07T09:41:07;17.70;99.90
74171;DHT22;62526;50.948;6.590;2023-08-07T09:43:34;18.00;99.90
74171;DHT22;62526;50.948;6.590;2023-08-07T09:46:05;18.30;99.90
74171;DHT22;62526;50.948;6.590;2023-08-07T09:48:32;18.60;99.90
74171;DHT22;62526;50.948;6.590;2023-08-07T09:51:01;18.70;99.90
74171;DHT22;62526;50.948;6.590;2023-08-07T09:53:29;19.00;99.90
74171;DHT22;62526;50.948;6.590;2023-08-07T09:55:57;19.30;99.90
74171;DHT22;62526;50.948;6.590;2023-08-07T09:58:24;19.70;99.90
74171;DHT22;62526;50.948;6.590;2023-08-07T10:00:51;19.70;99.90
74171;DHT22;62526;50.948;6.590;2023-08-07T10:03:19;19.80;99.90
74171;DHT22;62526;50.948;6.590;2023-08-07T10:05:47;20.00;99.90
74171;DHT22;62526;50.948;6.590;2023-08-07T10:08:13;20.20;99.90
74171;DHT22;62526;50.948;6.590;2023-08-07T10:10:40;20.50;99.90
74171;DHT22;62526;50.948;6.590;2023-08-07T10:13:08;20.10;99.90
74171;DHT22;62526;50.948;6.590;2023-08-07T10:15:35;20.10;99.90
74171;DHT22;62526;50.948;6.590;2023-08-07T10:18:03;20.50;99.90
74171;DHT22;62526;50.948;6.590;2023-08-07T10:20:29;20.80;99.90
74171;DHT22;62526;50.948;6.590;2023-08-07T10:23:00;20.70;99.90
74171;DHT22;62526;50.948;6.590;2023-08-07T10:25:24;20.60;99.90
74171;DHT22;62526;50.948;6.590;2023-08-07T10:27:51;19.90;99.90
74171;DHT22;62526;50.948;6.590;2023-08-07T10:30:17;19.90;99.90
74171;DHT22;62526;50.948;6.590;2023-08-07T10:32:45;19.40;99.90
74171;DHT22;62526;50.948;6.590;2023-08-07T10:35:25;19.40;99.90
74171;DHT22;62526;50.948;6.590;2023-08-07T10:37:51;19.60;99.90
74171;DHT22;62526;50.948;6.590;2023-08-07T10:40:19;19.80;99.90
74171;DHT22;62526;50.948;6.590;2023-08-07T10:42:52;19.20;99.90
74171;DHT22;62526;50.948;6.590;2023-08-07T10:45:18;18.90;99.90
74171;DHT22;62526;50.948;6.590;2023-08-07T10:47:45;19.00;99.90
74171;DHT22;62526;50.948;6.590;2023-08-07T10:50:11;19.60;99.90
74171;DHT22;62526;50.948;6.590;2023-08-07T10:52:38;20.00;99.90
74171;DHT22;62526;50.948;6.590;2023-08-07T10:55:12;20.90;99.90
74171;DHT22;62526;50.948;6.590;2023-08-07T10:57:32;20.90;99.90
74171;DHT22;62526;50.948;6.590;2023-08-07T11:00:02;21.10;99.90
74171;DHT22;62526;50.948;6.590;2023-08-07T11:02:30;21.10;99.90
74171;DHT22;62526;50.948;6.590;2023-08-07T11:04:56;20.90;99.90
74171;DHT22;62526;50.948;6.590;2023-08-07T11:07:26;21.00;99.90
74171;DHT22;62526;50.948;6.590;2023-08-07T11:09:53;20.50;99.90
74171;DHT22;62526;50.948;6.590;2023-08-07T11:12:20;20.80;99.90
74171;DHT22;62526;50.948;6.590;2023-08-07T11:14:47;21.40;98.30
74171;DHT22;62526;50.948;6.590;2023-08-07T11:17:14;21.30;98.60
74171;DHT22;62526;50.948;6.590;2023-08-07T11:19:41;21.10;96.90
74171;DHT22;62526;50.948;6.590;2023-08-07T11:22:08;21.10;98.10
74171;DHT22;62526;50.948;6.590;2023-08-07T11:24:36;21.30;97.00
74171;DHT22;62526;50.948;6.590;2023-08-07T11:27:02;21.40;97.00
74171;DHT22;62526;50.948;6.590;2023-08-07T11:29:30;21.90;96.40
74171;DHT22;62526;50.948;6.590;2023-08-07T11:31:56;22.30;94.70
74171;DHT22;62526;50.948;6.590;2023-08-07T11:34:24;22.40;94.50
74171;DHT22;62526;50.948;6.590;2023-08-07T11:36:50;22.30;93.50
74171;DHT22;62526;50.948;6.590;2023-08-07T11:39:17;22.30;93.70
74171;DHT22;62526;50.948;6.590;2023-08-07T11:41:44;22.60;93.50
74171;DHT22;62526;50.948;6.590;2023-08-07T11:44:10;22.50;92.70
74171;DHT22;62526;50.948;6.590;2023-08-07T11:46:37;22.60;92.50
74171;DHT22;62526;50.948;6.590;2023-08-07T11:49:04;22.60;91.10
74171;DHT22;62526;50.948;6.590;2023-08-07T11:51:34;22.60;90.10
74171;DHT22;62526;50.948;6.590;2023-08-07T11:54:02;22.70;90.40
74171;DHT22;62526;50.948;6.590;2023-08-07T11:56:32;22.70;90.10
74171;DHT22;62526;50.948;6.590;2023-08-07T11:58:59;22.00;91.50
74171;DHT22;62526;50.948;6.590;2023-08-07T12:01:26;22.20;92.30
74171;DHT22;62526;50.948;6.590;2023-08-07T12:03:56;22.80;92.10
74171;DHT22;62526;50.948;6.590;2023-08-07T12:06:24;22.00;91.60
74171;DHT22;62526;50.948;6.590;2023-08-07T12:08:53;21.90;90.90
74171;DHT22;62526;50.948;6.590;2023-08-07T12:11:17;21.80;92.20
74171;DHT22;62526;50.948;6.590;2023-08-07T12:13:44;22.20;92.00
74171;DHT22;62526;50.948;6.590;2023-08-07T12:16:11;22.00;91.80
74171;DHT22;62526;50.948;6.590;2023-08-07T12:18:45;21.40;92.60
74171;DHT22;62526;50.948;6.590;2023-08-07T12:21:13;21.80;93.60
74171;DHT22;62526;50.948;6.590;2023-08-07T12:23:39;21.90;93.20
74171;DHT22;62526;50.948;6.590;2023-08-07T12:26:08;22.00;93.10
74171;DHT22;62526;50.948;6.590;2023-08-07T12:28:34;22.30;92.90
74171;DHT22;62526;50.948;6.590;2023-08-07T12:31:01;22.70;92.10
74171;DHT22;62526;50.948;6.590;2023-08-07T12:33:28;23.20;91.50
74171;DHT22;62526;50.948;6.590;2023-08-07T12:35:54;23.50;91.70
74171;DHT22;62526;50.948;6.590;2023-08-07T12:38:20;23.70;91.40
74171;DHT22;62526;50.948;6.590;2023-08-07T12:40:47;24.40;91.50
74171;DHT22;62526;50.948;6.590;2023-08-07T12:43:14;24.60;86.00
74171;DHT22;62526;50.948;6.590;2023-08-07T12:45:40;24.10;89.00
74171;DHT22;62526;50.948;6.590;2023-08-07T12:48:07;24.60;89.60
74171;DHT22;62526;50.948;6.590;2023-08-07T12:50:34;24.30;89.10
74171;DHT22;62526;50.948;6.590;2023-08-07T12:53:00;24.00;88.60
74171;DHT22;62526;50.948;6.590;2023-08-07T12:55:27;24.20;86.50
74171;DHT22;62526;50.948;6.590;2023-08-07T12:57:54;24.30;86.50
74171;DHT22;62526;50.948;6.590;2023-08-07T13:00:20;24.60;86.70
74171;DHT22;62526;50.948;6.590;2023-08-07T13:02:48;25.00;84.20
74171;DHT22;62526;50.948;6.590;2023-08-07T13:05:14;25.20;85.70
74171;DHT22;62526;50.948;6.590;2023-08-07T13:07:40;25.10;84.90
74171;DHT22;62526;50.948;6.590;2023-08-07T13:10:08;25.10;85.40
74171;DHT22;62526;50.948;6.590;2023-08-07T13:12:37;25.20;86.00
74171;DHT22;62526;50.948;6.590;2023-08-07T13:15:03;24.70;85.80
74171;DHT22;62526;50.948;6.590;2023-08-07T13:17:30;23.60;87.30
74171;DHT22;62526;50.948;6.590;2023-08-07T13:19:58;23.60;88.10
74171;DHT22;62526;50.948;6.590;2023-08-07T13:22:24;23.30;89.30
74171;DHT22;62526;50.948;6.590;2023-08-07T13:24:51;23.40;89.80
74171;DHT22;62526;50.948;6.590;2023-08-07T13:27:18;23.20;89.40
74171;DHT22;62526;50.948;6.590;2023-08-07T13:29:45;23.20;90.10
74171;DHT22;62526;50.948;6.590;2023-08-07T13:32:12;22.50;91.20
74171;DHT22;62526;50.948;6.590;2023-08-07T13:34:39;22.50;91.40
74171;DHT22;62526;50.948;6.590;2023-08-07T13:37:05;22.20;92.90
74171;DHT22;62526;50.948;6.590;2023-08-07T13:39:32;22.20;92.90
74171;DHT22;62526;50.948;6.590;2023-08-07T13:41:59;22.30;93.60
74171;DHT22;62526;50.948;6.590;2023-08-07T13:44:26;23.20;91.70
74171;DHT22;62526;50.948;6.590;2023-08-07T13:46:53;24.00;89.20
74171;DHT22;62526;50.948;6.590;2023-08-07T13:49:21;24.20;88.30
74171;DHT22;62526;50.948;6.590;2023-08-07T13:51:46;24.30;87.80
74171;DHT22;62526;50.948;6.590;2023-08-07T13:54:13;24.60;83.60
74171;DHT22;62526;50.948;6.590;2023-08-07T13:56:40;25.20;82.30
74171;DHT22;62526;50.948;6.590;2023-08-07T13:59:06;25.40;81.00
74171;DHT22;62526;50.948;6.590;2023-08-07T14:01:33;25.00;76.50
74171;DHT22;62526;50.948;6.590;2023-08-07T14:04:00;24.20;78.10
74171;DHT22;62526;50.948;6.590;2023-08-07T14:06:27;23.60;79.60
74171;DHT22;62526;50.948;6.590;2023-08-07T14:08:54;23.30;83.00
74171;DHT22;62526;50.948;6.590;2023-08-07T14:11:21;23.20;83.50
74171;DHT22;62526;50.948;6.590;2023-08-07T14:13:47;22.70;84.00
74171;DHT22;62526;50.948;6.590;2023-08-07T14:16:14;22.40;86.90
74171;DHT22;62526;50.948;6.590;2023-08-07T14:18:41;22.40;87.40
74171;DHT22;62526;50.948;6.590;2023-08-07T14:21:07;22.20;88.60
74171;DHT22;62526;50.948;6.590;2023-08-07T14:23:34;22.10;90.20
74171;DHT22;62526;50.948;6.590;2023-08-07T14:26:01;22.10;90.30
74171;DHT22;62526;50.948;6.590;2023-08-07T14:28:30;22.10;91.90
74171;DHT22;62526;50.948;6.590;2023-08-07T14:30:57;22.20;91.20
74171;DHT22;62526;50.948;6.590;2023-08-07T14:33:24;23.00;90.20
74171;DHT22;62526;50.948;6.590;2023-08-07T14:35:51;24.20;87.80
74171;DHT22;62526;50.948;6.590;2023-08-07T14:38:17;25.10;84.10
74171;DHT22;62526;50.948;6.590;2023-08-07T14:40:44;25.80;82.10
74171;DHT22;62526;50.948;6.590;2023-08-07T14:43:10;25.80;81.60
74171;DHT22;62526;50.948;6.590;2023-08-07T14:45:37;25.40;82.60
74171;DHT22;62526;50.948;6.590;2023-08-07T14:48:04;24.70;83.40
74171;DHT22;62526;50.948;6.590;2023-08-07T14:50:30;24.80;84.80
74171;DHT22;62526;50.948;6.590;2023-08-07T14:52:57;25.20;82.70
74171;DHT22;62526;50.948;6.590;2023-08-07T14:55:24;26.00;82.10
74171;DHT22;62526;50.948;6.590;2023-08-07T14:57:50;26.10;79.20
74171;DHT22;62526;50.948;6.590;2023-08-07T15:00:17;25.80;79.60
74171;DHT22;62526;50.948;6.590;2023-08-07T15:02:44;25.80;80.10
74171;DHT22;62526;50.948;6.590;2023-08-07T15:05:10;25.60;79.40
74171;DHT22;62526;50.948;6.590;2023-08-07T15:07:37;26.10;78.30
74171;DHT22;62526;50.948;6.590;2023-08-07T15:10:04;26.10;77.60
74171;DHT22;62526;50.948;6.590;2023-08-07T15:12:30;25.80;78.80
74171;DHT22;62526;50.948;6.590;2023-08-07T15:14:57;25.70;78.80
74171;DHT22;62526;50.948;6.590;2023-08-07T15:17:24;26.00;76.80
74171;DHT22;62526;50.948;6.590;2023-08-07T15:19:50;26.70;74.10
74171;DHT22;62526;50.948;6.590;2023-08-07T15:22:17;25.10;73.00
74171;DHT22;62526;50.948;6.590;2023-08-07T15:24:44;25.00;73.60
74171;DHT22;62526;50.948;6.590;2023-08-07T15:27:11;24.20;76.00
74171;DHT22;62526;50.948;6.590;2023-08-07T15:29:37;25.20;74.30
74171;DHT22;62526;50.948;6.590;2023-08-07T15:32:04;26.20;72.10